createdAt,value
2022-12-06T00:01:13.500Z,98467.75
2022-12-06T00:03:41.450Z,98467.03
2022-12-06T00:06:17.804Z,98468.88
2022-12-06T00:08:45.371Z,98463.03
2022-12-06T00:11:16.292Z,98462.56
2022-12-06T00:13:43.294Z,98468.44
2022-12-06T00:16:12.877Z,98460.91
2022-12-06T00:18:40.848Z,98468.63
2022-12-06T00:21:09.328Z,98476.44
2022-12-06T00:23:41.366Z,98467.69
2022-12-06T00:26:08.922Z,98481.13
2022-12-06T00:28:36.426Z,98482.13
2022-12-06T00:31:05.563Z,98474.81
2022-12-06T00:33:34.254Z,98470.78
2022-12-06T00:36:03.563Z,98470.03
2022-12-06T00:38:30.454Z,98468.28
2022-12-06T00:41:00.779Z,98465.34
2022-12-06T00:43:27.969Z,98469.78
2022-12-06T00:45:54.666Z,98458.97
2022-12-06T00:48:21.703Z,98458.66
2022-12-06T00:50:48.206Z,98453.72
2022-12-06T00:53:14.780Z,98455.50
2022-12-06T00:55:43.107Z,98458.56
2022-12-06T00:58:10.270Z,98458.75
2022-12-06T01:00:36.707Z,98456.72
2022-12-06T01:03:03.557Z,98456.53
2022-12-06T01:05:30.362Z,98448.97
2022-12-06T01:07:57.045Z,98464.53
2022-12-06T01:10:24.265Z,98465.56
2022-12-06T01:12:50.799Z,98459.59
2022-12-06T01:15:17.293Z,98461.81
2022-12-06T01:17:43.742Z,98454.28
2022-12-06T01:20:10.572Z,98449.78
2022-12-06T01:22:36.954Z,98444.13
2022-12-06T01:25:03.591Z,98441.34
2022-12-06T01:27:29.999Z,98436.59
2022-12-06T01:29:57.530Z,98425.41
2022-12-06T01:32:24.149Z,98420.28
2022-12-06T01:34:52.701Z,98423.34
2022-12-06T01:37:19.386Z,98427.19
2022-12-06T01:39:45.782Z,98423.81
2022-12-06T01:42:13.096Z,98422.81
2022-12-06T01:44:42.362Z,98418.91
2022-12-06T01:47:13.386Z,98419.66
2022-12-06T01:49:41.577Z,98417.13
2022-12-06T01:52:12.832Z,98405.75
2022-12-06T01:54:40.382Z,98399.44
2022-12-06T01:57:08.910Z,98389.09
2022-12-06T01:59:35.763Z,98383.88
2022-12-06T02:02:02.498Z,98388.34
2022-12-06T02:04:31.139Z,98381.75
2022-12-06T02:06:59.303Z,98377.56
2022-12-06T02:09:28.214Z,98386.03
2022-12-06T02:11:54.590Z,98375.38
2022-12-06T02:14:26.721Z,98373.47
2022-12-06T02:17:44.816Z,98365.94
2022-12-06T02:20:24.992Z,98367.13
2022-12-06T02:23:34.589Z,98366.66
2022-12-06T02:26:17.386Z,98363.13
2022-12-06T02:29:13.825Z,98366.31
2022-12-06T02:31:46.471Z,98359.50
2022-12-06T02:34:26.847Z,98360.22
2022-12-06T02:37:00.353Z,98360.06
2022-12-06T02:39:33.240Z,98361.34
2022-12-06T02:42:04.933Z,98351.78
2022-12-06T02:44:40.665Z,98346.63
2022-12-06T02:47:11.553Z,98340.44
2022-12-06T02:49:44.845Z,98338.00
2022-12-06T02:52:13.363Z,98337.16
2022-12-06T02:54:41.498Z,98340.88
2022-12-06T02:57:07.904Z,98343.09
2022-12-06T02:59:34.661Z,98337.34
2022-12-06T03:02:03.485Z,98340.88
2022-12-06T03:04:49.707Z,98342.63
2022-12-06T03:07:25.169Z,98337.91
2022-12-06T03:10:17.045Z,98333.63
2022-12-06T03:13:12.949Z,98334.19
2022-12-06T03:16:07.850Z,98338.00
2022-12-06T03:18:44.774Z,98335.19
2022-12-06T03:21:22.558Z,98340.88
2022-12-06T03:23:51.173Z,98339.09
2022-12-06T03:26:23.555Z,98341.63
2022-12-06T03:28:52.844Z,98334.81
2022-12-06T03:31:22.846Z,98341.91
2022-12-06T03:33:58.956Z,98338.34
2022-12-06T03:36:26.940Z,98339.09
2022-12-06T03:38:57.609Z,98331.13
2022-12-06T03:41:28.530Z,98328.59
2022-12-06T03:43:55.352Z,98323.94
2022-12-06T03:46:28.124Z,98326.34
2022-12-06T03:49:06.681Z,98325.16
2022-12-06T03:51:35.742Z,98324.78
2022-12-06T03:54:04.932Z,98317.63
2022-12-06T03:56:31.948Z,98320.03
2022-12-06T03:58:58.316Z,98318.63
2022-12-06T04:01:24.836Z,98313.59
2022-12-06T04:03:51.342Z,98319.66
2022-12-06T04:06:17.791Z,98306.91
2022-12-06T04:08:44.211Z,98309.16
2022-12-06T04:11:10.632Z,98307.09
2022-12-06T04:13:37.165Z,98314.63
2022-12-06T04:16:04.058Z,98309.88
2022-12-06T04:18:30.493Z,98310.50
2022-12-06T04:21:23.171Z,98311.94
2022-12-06T04:23:52.105Z,98311.19
2022-12-06T04:26:20.881Z,98313.34
2022-12-06T04:29:07.154Z,98315.38
2022-12-06T04:31:52.617Z,98309.59
2022-12-06T04:34:37.695Z,98308.69
2022-12-06T04:37:22.988Z,98310.19
2022-12-06T04:39:49.396Z,98307.66
2022-12-06T04:42:34.223Z,98312.13
2022-12-06T04:45:00.686Z,98300.56
2022-12-06T04:47:27.364Z,98301.91
2022-12-06T04:49:53.726Z,98304.84
2022-12-06T04:52:20.154Z,98299.28
2022-12-06T04:54:47.253Z,98296.13
2022-12-06T04:57:16.298Z,98297.78
2022-12-06T04:59:44.176Z,98301.22
2022-12-06T05:02:13.257Z,98295.75
2022-12-06T05:04:39.888Z,98295.53
2022-12-06T05:07:06.286Z,98294.25
2022-12-06T05:09:32.711Z,98299.84
2022-12-06T05:11:59.117Z,98295.94
2022-12-06T05:14:25.519Z,98286.81
2022-12-06T05:16:52.028Z,98291.41
2022-12-06T05:19:18.593Z,98293.59
2022-12-06T05:21:44.978Z,98290.72
2022-12-06T05:24:11.551Z,98280.13
2022-12-06T05:26:38.095Z,98296.75
2022-12-06T05:29:04.443Z,98286.81
2022-12-06T05:31:30.914Z,98285.06
2022-12-06T05:33:57.356Z,98286.06
2022-12-06T05:36:26.135Z,98279.56
2022-12-06T05:38:53.577Z,98282.06
2022-12-06T05:41:21.871Z,98284.88
2022-12-06T05:43:48.743Z,98278.16
2022-12-06T05:46:15.203Z,98284.69
2022-12-06T05:48:41.697Z,98280.41
2022-12-06T05:51:08.214Z,98284.69
2022-12-06T05:53:34.644Z,98280.41
2022-12-06T05:56:09.950Z,98285.44
2022-12-06T05:58:37.254Z,98288.31
2022-12-06T06:01:05.542Z,98277.69
2022-12-06T06:03:32.300Z,98279.28
2022-12-06T06:06:00.436Z,98277.16
2022-12-06T06:08:28.423Z,98283.28
2022-12-06T06:10:55.438Z,98272.03
2022-12-06T06:13:22.041Z,98277.91
2022-12-06T06:15:49.950Z,98285.59
2022-12-06T06:18:17.610Z,98281.22
2022-12-06T06:20:52.581Z,98278.91
2022-12-06T06:23:20.066Z,98283.94
2022-12-06T06:25:46.950Z,98282.16
2022-12-06T06:28:13.364Z,98280.41
2022-12-06T06:30:39.925Z,98289.97
2022-12-06T06:33:06.436Z,98290.09
2022-12-06T06:35:33.074Z,98288.31
2022-12-06T06:37:59.944Z,98291.09
2022-12-06T06:40:26.622Z,98291.56
2022-12-06T06:42:53.047Z,98292.50
2022-12-06T06:45:23.807Z,98289.59
2022-12-06T06:47:53.303Z,98288.69
2022-12-06T06:50:19.666Z,98287.94
2022-12-06T06:52:46.146Z,98293.25
2022-12-06T06:55:12.813Z,98284.69
2022-12-06T06:57:41.117Z,98287.19
2022-12-06T07:00:08.159Z,98281.91
2022-12-06T07:02:34.620Z,98284.56
2022-12-06T07:05:01.018Z,98281.41
2022-12-06T07:07:27.381Z,98281.22
2022-12-06T07:09:53.738Z,98280.78
2022-12-06T07:12:20.092Z,98280.50
2022-12-06T07:14:46.471Z,98292.22
2022-12-06T07:17:12.883Z,98285.69
2022-12-06T07:19:39.347Z,98289.16
2022-12-06T07:22:05.747Z,98296.59
2022-12-06T07:24:36.961Z,98287.38
2022-12-06T07:27:06.438Z,98297.13
2022-12-06T07:29:32.897Z,98296.13
2022-12-06T07:31:59.354Z,98293.16
2022-12-06T07:34:25.761Z,98290.34
2022-12-06T07:36:52.174Z,98291.66
2022-12-06T07:39:18.623Z,98281.41
2022-12-06T07:42:03.685Z,98285.91
2022-12-06T07:44:48.484Z,98283.19
2022-12-06T07:47:14.936Z,98285.69
2022-12-06T07:49:41.319Z,98291.19
2022-12-06T07:52:07.697Z,98285.16
2022-12-06T07:54:34.169Z,98289.44
2022-12-06T07:57:00.585Z,98289.31
2022-12-06T07:59:27.178Z,98289.91
2022-12-06T08:01:54.178Z,98291.66
2022-12-06T08:04:20.862Z,98287.84
2022-12-06T08:06:47.296Z,98289.06
2022-12-06T08:09:13.749Z,98286.91
2022-12-06T08:11:40.146Z,98289.44
2022-12-06T08:14:06.573Z,98288.38
2022-12-06T08:16:33.061Z,98284.03
2022-12-06T08:18:59.806Z,98290.94
2022-12-06T08:21:26.866Z,98288.97
2022-12-06T08:23:54.261Z,98293.16
2022-12-06T08:26:20.941Z,98292.59
2022-12-06T08:28:47.951Z,98282.81
2022-12-06T08:31:20.531Z,98286.81
2022-12-06T08:33:47.400Z,98282.69
2022-12-06T08:36:19.994Z,98285.91
2022-12-06T08:38:47.311Z,98286.19
2022-12-06T08:41:32.715Z,98280.69
2022-12-06T08:44:00.609Z,98286.44
2022-12-06T08:46:28.736Z,98281.91
2022-12-06T08:48:55.510Z,98280.50
2022-12-06T08:51:21.910Z,98280.94
2022-12-06T08:53:48.348Z,98274.34
2022-12-06T08:56:15.533Z,98274.84
2022-12-06T08:58:41.965Z,98270.41
2022-12-06T09:01:13.798Z,98272.19
2022-12-06T09:03:40.319Z,98269.88
2022-12-06T09:06:08.370Z,98270.88
2022-12-06T09:08:35.668Z,98274.63
2022-12-06T09:11:02.286Z,98268.94
2022-12-06T09:13:28.758Z,98280.03
2022-12-06T09:15:55.288Z,98275.91
2022-12-06T09:18:22.086Z,98267.63
2022-12-06T09:20:48.474Z,98276.03
2022-12-06T09:23:14.844Z,98267.00
2022-12-06T09:25:42.440Z,98266.59
2022-12-06T09:28:08.879Z,98275.09
2022-12-06T09:30:35.265Z,98265.53
2022-12-06T09:33:01.865Z,98263.84
2022-12-06T09:35:28.337Z,98258.00
2022-12-06T09:37:54.807Z,98255.75
2022-12-06T09:40:51.878Z,98260.09
2022-12-06T09:43:37.386Z,98242.72
2022-12-06T09:46:11.344Z,98237.78
2022-12-06T09:48:52.957Z,98246.53
2022-12-06T09:51:37.393Z,98240.72
2022-12-06T09:54:18.767Z,98245.13
2022-12-06T09:56:53.897Z,98241.88
2022-12-06T09:59:29.162Z,98240.25
2022-12-06T10:02:23.571Z,98237.31
2022-12-06T10:05:04.191Z,98240.66
2022-12-06T10:07:50.423Z,98234.03
2022-12-06T10:10:46.702Z,98227.38
2022-12-06T10:13:16.247Z,98224.38
2022-12-06T10:16:20.271Z,98222.81
2022-12-06T10:19:12.789Z,98218.53
2022-12-06T10:22:27.366Z,98218.69
2022-12-06T10:25:13.634Z,98210.84
2022-12-06T10:28:01.037Z,98216.72
2022-12-06T10:30:27.529Z,98208.00
2022-12-06T10:33:03.726Z,98202.88
2022-12-06T10:35:43.379Z,98201.97
2022-12-06T10:38:18.897Z,98204.81
2022-12-06T10:41:28.506Z,98201.38
2022-12-06T10:44:22.034Z,98206.25
2022-12-06T10:47:06.474Z,98203.44
2022-12-06T10:49:47.994Z,98203.25
2022-12-06T10:52:23.744Z,98202.88
2022-12-06T10:55:04.507Z,98197.50
2022-12-06T10:57:40.624Z,98199.16
2022-12-06T11:00:24.707Z,98196.94
2022-12-06T11:03:00.358Z,98202.75
2022-12-06T11:05:46.969Z,98198.50
2022-12-06T11:08:32.832Z,98201.78
2022-12-06T11:11:01.341Z,98194.34
2022-12-06T11:13:44.989Z,98192.94
2022-12-06T11:16:17.795Z,98189.41
2022-12-06T11:18:46.079Z,98192.84
2022-12-06T11:21:23.199Z,98186.06
2022-12-06T11:24:09.421Z,98185.19
2022-12-06T11:26:38.494Z,98180.00
2022-12-06T11:29:10.042Z,98184.09
2022-12-06T11:31:49.688Z,98176.91
2022-12-06T11:34:22.292Z,98182.81
2022-12-06T11:37:00.143Z,98188.09
2022-12-06T11:39:27.336Z,98181.31
2022-12-06T11:41:57.278Z,98181.88
2022-12-06T11:44:27.983Z,98181.13
2022-12-06T11:46:56.837Z,98187.38
2022-12-06T11:49:39.094Z,98180.66
2022-12-06T11:52:40.911Z,98177.22
2022-12-06T11:55:16.552Z,98177.69
2022-12-06T11:57:50.178Z,98173.03
2022-12-06T12:00:19.318Z,98175.53
2022-12-06T12:02:47.796Z,98164.03
2022-12-06T12:05:17.310Z,98161.78
2022-12-06T12:07:48.303Z,98158.25
2022-12-06T12:10:27.127Z,98158.44
2022-12-06T12:13:12.837Z,98161.22
2022-12-06T12:15:49.069Z,98157.03
2022-12-06T12:18:26.528Z,98146.69
2022-12-06T12:20:53.423Z,98152.00
2022-12-06T12:23:25.522Z,98150.41
2022-12-06T12:26:20.904Z,98149.41
2022-12-06T12:29:03.230Z,98144.97
2022-12-06T12:31:29.688Z,98151.75
2022-12-06T12:34:35.301Z,98146.72
2022-12-06T12:37:19.023Z,98146.16
2022-12-06T12:39:53.126Z,98145.53
2022-12-06T12:42:45.935Z,98146.44
2022-12-06T12:45:18.934Z,98141.69
2022-12-06T12:48:20.426Z,98142.38
2022-12-06T12:51:03.102Z,98142.94
2022-12-06T12:53:40.980Z,98145.25
2022-12-06T12:56:11.671Z,98139.78
2022-12-06T12:58:38.433Z,98140.31
2022-12-06T13:01:13.022Z,98136.78
2022-12-06T13:03:54.908Z,98129.59
2022-12-06T13:06:29.766Z,98137.88
2022-12-06T13:09:00.712Z,98131.81
2022-12-06T13:11:28.952Z,98132.63
2022-12-06T13:13:56.348Z,98138.94
2022-12-06T13:16:30.996Z,98140.44
2022-12-06T13:18:58.926Z,98134.66
2022-12-06T13:21:40.004Z,98146.94
2022-12-06T13:24:13.017Z,98139.41
2022-12-06T13:26:50.906Z,98135.97
2022-12-06T13:29:26.457Z,98135.97
2022-12-06T13:31:55.036Z,98136.41
2022-12-06T13:34:37.421Z,98124.81
2022-12-06T13:37:24.524Z,98129.63
2022-12-06T13:39:50.945Z,98133.38
2022-12-06T13:42:37.451Z,98128.06
2022-12-06T13:45:06.328Z,98127.03
2022-12-06T13:47:32.648Z,98128.63
2022-12-06T13:50:17.350Z,98131.41
2022-12-06T13:52:43.743Z,98131.50
2022-12-06T13:55:25.556Z,98128.41
2022-12-06T13:58:16.981Z,98131.69
2022-12-06T14:00:43.276Z,98121.56
2022-12-06T14:03:15.839Z,98114.56
2022-12-06T14:08:42.895Z,98125.75
2022-12-06T14:11:36.573Z,98118.28
2022-12-06T14:14:14.784Z,98125.00
2022-12-06T14:16:47.095Z,98113.28
2022-12-06T14:19:20.251Z,98123.31
2022-12-06T14:22:04.416Z,98119.88
2022-12-06T14:24:43.086Z,98118.88
2022-12-06T14:27:19.411Z,98119.78
2022-12-06T14:30:04.573Z,98117.94
2022-12-06T14:32:39.264Z,98127.22
2022-12-06T14:35:28.000Z,98118.94
2022-12-06T14:38:01.487Z,98120.91
2022-12-06T14:40:59.847Z,98127.91
2022-12-06T14:43:30.112Z,98123.97
2022-12-06T14:46:00.250Z,98129.72
2022-12-06T14:48:27.031Z,98124.28
2022-12-06T14:50:59.277Z,98121.28
2022-12-06T14:53:33.213Z,98121.09
2022-12-06T14:56:06.129Z,98131.41
2022-12-06T14:58:42.579Z,98128.16
2022-12-06T15:01:20.706Z,98135.13
2022-12-06T15:04:01.188Z,98126.03
2022-12-06T15:06:29.713Z,98118.50
2022-12-06T15:08:59.016Z,98124.34
2022-12-06T15:11:52.849Z,98120.06
2022-12-06T15:14:22.855Z,98118.19
2022-12-06T15:16:59.256Z,98119.69
2022-12-06T15:19:26.051Z,98115.78
2022-12-06T15:21:53.348Z,98116.06
2022-12-06T15:24:22.165Z,98114.03
2022-12-06T15:26:49.392Z,98116.81
2022-12-06T15:29:15.979Z,98114.97
2022-12-06T15:31:44.653Z,98117.19
2022-12-06T15:34:35.148Z,98120.00
2022-12-06T15:37:36.992Z,98117.28
2022-12-06T15:39:48.884Z,98111.56
2022-12-06T15:42:21.327Z,98109.78
2022-12-06T15:44:50.115Z,98113.13
2022-12-06T15:47:18.049Z,98117.59
2022-12-06T15:49:45.403Z,98109.78
2022-12-06T15:52:23.105Z,98114.88
2022-12-06T15:54:49.590Z,98118.69
2022-12-06T15:57:16.066Z,98116.84
2022-12-06T15:59:42.471Z,98113.75
2022-12-06T16:02:17.535Z,98115.91
2022-12-06T16:04:45.348Z,98116.84
2022-12-06T16:07:13.275Z,98110.41
2022-12-06T16:09:39.737Z,98116.56
2022-12-06T16:12:06.503Z,98118.78
2022-12-06T16:14:32.878Z,98120.28
2022-12-06T16:16:59.260Z,98114.59
2022-12-06T16:19:45.605Z,98111.34
2022-12-06T16:22:12.143Z,98110.88
2022-12-06T16:24:38.522Z,98108.75
2022-12-06T16:27:05.189Z,98114.59
2022-12-06T16:29:31.519Z,98111.69
2022-12-06T16:31:57.963Z,98103.09
2022-12-06T16:34:25.096Z,98109.56
2022-12-06T16:36:59.183Z,98102.69
2022-12-06T16:39:26.615Z,98107.25
2022-12-06T16:41:53.094Z,98104.91
2022-12-06T16:44:19.540Z,98109.19
2022-12-06T16:46:46.542Z,98109.19
2022-12-06T16:49:48.342Z,98105.50
2022-12-06T16:52:16.626Z,98109.28
2022-12-06T16:54:43.610Z,98111.31
2022-12-06T16:57:14.008Z,98105.19
2022-12-06T16:59:41.912Z,98101.28
2022-12-06T17:02:34.834Z,98107.25
2022-12-06T17:05:06.126Z,98109.19
2022-12-06T17:07:34.312Z,98110.75
2022-12-06T17:10:01.125Z,98097.38
2022-12-06T17:12:27.695Z,98108.97
2022-12-06T17:14:54.139Z,98101.19
2022-12-06T17:17:22.247Z,98098.69
2022-12-06T17:19:49.149Z,98102.47
2022-12-06T17:22:16.341Z,98102.94
2022-12-06T17:24:42.913Z,98109.16
2022-12-06T17:27:09.480Z,98098.88
2022-12-06T17:29:36.434Z,98103.78
2022-12-06T17:32:02.854Z,98106.84
2022-12-06T17:34:29.337Z,98109.25
2022-12-06T17:36:57.391Z,98107.41
2022-12-06T17:39:23.776Z,98112.91
2022-12-06T17:42:08.938Z,98109.00
2022-12-06T17:44:35.844Z,98109.47
2022-12-06T17:47:02.593Z,98109.72
2022-12-06T17:49:29.246Z,98107.84
2022-12-06T17:51:55.671Z,98110.81
2022-12-06T17:54:22.109Z,98107.91
2022-12-06T17:56:50.733Z,98107.84
2022-12-06T17:59:25.810Z,98103.13
2022-12-06T18:04:40.364Z,98105.88
2022-12-06T18:07:06.793Z,98105.41
2022-12-06T18:09:33.144Z,98105.16
2022-12-06T18:12:01.026Z,98108.06
2022-12-06T18:14:27.654Z,98108.38
2022-12-06T18:16:54.135Z,98104.84
2022-12-06T18:19:21.714Z,98104.41
2022-12-06T18:21:49.187Z,98107.22
2022-12-06T18:24:21.930Z,98108.41
2022-12-06T18:26:49.489Z,98107.75
2022-12-06T18:29:21.582Z,98110.06
2022-12-06T18:31:48.866Z,98111.16
2022-12-06T18:34:15.495Z,98113.03
2022-12-06T18:36:42.339Z,98108.16
2022-12-06T18:39:14.947Z,98106.41
2022-12-06T18:41:43.014Z,98102.41
2022-12-06T18:44:10.350Z,98104.16
2022-12-06T18:46:38.635Z,98113.25
2022-12-06T18:49:05.235Z,98107.97
2022-12-06T18:51:33.475Z,98105.66
2022-12-06T18:54:02.017Z,98102.69
2022-12-06T18:56:30.161Z,98104.00
2022-12-06T18:59:01.309Z,98117.31
2022-12-06T19:01:31.153Z,98120.09
2022-12-06T19:04:00.629Z,98116.56
2022-12-06T19:06:29.144Z,98108.31
2022-12-06T19:08:57.861Z,98117.72
2022-12-06T19:11:24.482Z,98121.03
2022-12-06T19:13:52.897Z,98118.28
2022-12-06T19:16:32.826Z,98115.00
2022-12-06T19:19:00.199Z,98114.28
2022-12-06T19:21:27.435Z,98122.25
2022-12-06T19:23:57.793Z,98125.31
2022-12-06T19:26:25.748Z,98120.56
2022-12-06T19:28:52.491Z,98126.78
2022-12-06T19:31:20.526Z,98122.25
2022-12-06T19:33:47.265Z,98123.28
2022-12-06T19:36:15.082Z,98126.41
2022-12-06T19:38:42.738Z,98125.56
2022-12-06T19:41:16.457Z,98131.41
2022-12-06T19:44:02.142Z,98122.94
2022-12-06T19:46:30.373Z,98131.75
2022-12-06T19:49:05.266Z,98120.97
2022-12-06T19:51:38.728Z,98114.75
2022-12-06T19:54:07.007Z,98121.78
2022-12-06T19:56:33.963Z,98121.09
2022-12-06T19:59:00.507Z,98120.88
2022-12-06T20:01:30.167Z,98127.72
2022-12-06T20:03:56.980Z,98126.66
2022-12-06T20:06:26.173Z,98120.63
2022-12-06T20:08:54.651Z,98121.63
2022-12-06T20:11:41.714Z,98128.13
2022-12-06T20:14:11.138Z,98134.09
2022-12-06T20:16:38.262Z,98120.34
2022-12-06T20:19:07.962Z,98125.38
2022-12-06T20:21:35.007Z,98128.41
2022-12-06T20:24:01.945Z,98120.88
2022-12-06T20:26:30.315Z,98119.94
2022-12-06T20:28:57.186Z,98120.88
2022-12-06T20:31:26.017Z,98126.72
2022-12-06T20:33:56.579Z,98125.22
2022-12-06T20:36:24.070Z,98118.47
2022-12-06T20:38:54.261Z,98118.94
2022-12-06T20:41:26.638Z,98122.72
2022-12-06T20:43:53.443Z,98112.47
2022-12-06T20:46:25.234Z,98111.56
2022-12-06T20:48:53.333Z,98108.97
2022-12-06T20:51:25.927Z,98113.97
2022-12-06T20:53:54.611Z,98113.31
2022-12-06T20:56:22.472Z,98107.28
2022-12-06T20:58:49.981Z,98112.00
2022-12-06T21:01:19.999Z,98110.81
2022-12-06T21:03:51.081Z,98109.50
2022-12-06T21:06:19.809Z,98109.97
2022-12-06T21:08:46.948Z,98104.22
2022-12-06T21:11:22.621Z,98114.34
2022-12-06T21:13:54.021Z,98114.72
2022-12-06T21:16:23.218Z,98109.34
2022-12-06T21:18:55.962Z,98112.59
2022-12-06T21:21:30.888Z,98111.22
2022-12-06T21:24:06.633Z,98115.00
2022-12-06T21:26:33.643Z,98113.50
2022-12-06T21:29:00.415Z,98111.56
2022-12-06T21:31:29.109Z,98122.03
2022-12-06T21:33:56.523Z,98109.97
2022-12-06T21:36:23.592Z,98126.56
2022-12-06T21:38:50.016Z,98127.88
2022-12-06T21:41:16.380Z,98126.22
2022-12-06T21:43:42.869Z,98130.22
2022-12-06T21:46:15.019Z,98125.75
2022-12-06T21:48:42.837Z,98128.41
2022-12-06T21:51:11.795Z,98139.09
2022-12-06T21:53:39.043Z,98130.09
2022-12-06T21:56:07.800Z,98131.03
2022-12-06T21:58:35.217Z,98126.75
2022-12-06T22:01:06.730Z,98128.00
2022-12-06T22:03:33.493Z,98126.50
2022-12-06T22:06:06.570Z,98125.97
2022-12-06T22:08:33.442Z,98125.22
2022-12-06T22:11:00.070Z,98122.03
2022-12-06T22:13:26.864Z,98116.28
2022-12-06T22:15:53.465Z,98123.50
2022-12-06T22:18:20.001Z,98120.97
2022-12-06T22:20:56.358Z,98115.22
2022-12-06T22:23:22.880Z,98116.97
2022-12-06T22:25:49.291Z,98110.25
2022-12-06T22:28:15.675Z,98109.50
2022-12-06T22:30:42.029Z,98109.78
2022-12-06T22:33:08.555Z,98109.88
2022-12-06T22:35:35.125Z,98108.78
2022-12-06T22:38:01.645Z,98112.00
2022-12-06T22:40:28.094Z,98106.47
2022-12-06T22:42:54.434Z,98107.69
2022-12-06T22:45:20.806Z,98105.47
2022-12-06T22:47:47.162Z,98099.63
2022-12-06T22:50:13.650Z,98104.63
2022-12-06T22:52:40.223Z,98111.63
2022-12-06T22:55:06.844Z,98107.56
2022-12-06T22:57:33.357Z,98112.09
2022-12-06T22:59:59.968Z,98106.56
2022-12-06T23:02:26.717Z,98110.34
2022-12-06T23:04:53.176Z,98100.06
2022-12-06T23:07:19.540Z,98098.84
2022-12-06T23:09:45.871Z,98101.00
2022-12-06T23:12:12.239Z,98103.44
2022-12-06T23:14:38.672Z,98088.22
2022-12-06T23:17:05.031Z,98085.00
2022-12-06T23:19:31.515Z,98093.75
2022-12-06T23:21:57.943Z,98093.97
2022-12-06T23:24:24.302Z,98098.41
2022-12-06T23:26:56.276Z,98093.53
2022-12-06T23:29:24.487Z,98093.75
2022-12-06T23:31:50.908Z,98095.88
2022-12-06T23:34:25.868Z,98089.94
2022-12-06T23:36:53.285Z,98093.38
2022-12-06T23:39:19.622Z,98098.41
2022-12-06T23:41:46.123Z,98088.66
2022-12-06T23:44:13.127Z,98093.31
2022-12-06T23:46:40.389Z,98087.00
2022-12-06T23:49:07.734Z,98077.66
2022-12-06T23:51:36.942Z,98080.22
2022-12-06T23:54:05.400Z,98084.97
2022-12-06T23:56:35.574Z,98078.75
2022-12-06T23:59:03.553Z,98083.00
